createdAt,value
2019-03-28T00:01:20.496Z,30.77
2019-03-28T00:03:52.184Z,27.27
2019-03-28T00:06:21.189Z,26.77
2019-03-28T00:08:52.569Z,33.30
2019-03-28T00:11:21.210Z,28.77
2019-03-28T00:13:49.605Z,32.40
2019-03-28T00:16:19.632Z,26.37
2019-03-28T00:18:49.677Z,28.40
2019-03-28T00:21:21.001Z,21.73
2019-03-28T00:24:00.253Z,24.00
2019-03-28T00:26:30.442Z,21.17
2019-03-28T00:28:58.768Z,33.37
2019-03-28T00:31:27.418Z,21.93
2019-03-28T00:34:04.397Z,18.90
2019-03-28T00:36:35.689Z,20.83
2019-03-28T00:39:06.857Z,29.53
2019-03-28T00:41:35.268Z,25.87
2019-03-28T00:44:06.385Z,25.87
2019-03-28T00:46:37.452Z,22.40
2019-03-28T00:49:13.710Z,22.30
2019-03-28T00:51:45.678Z,24.40
2019-03-28T00:54:14.044Z,23.67
2019-03-28T00:56:47.617Z,29.70
2019-03-28T00:59:20.586Z,32.97
2019-03-28T01:01:54.511Z,36.97
2019-03-28T01:04:22.897Z,33.80
2019-03-28T01:06:51.295Z,35.63
2019-03-28T01:09:19.690Z,31.50
2019-03-28T01:11:48.101Z,27.13
2019-03-28T01:14:19.181Z,23.17
2019-03-28T01:16:49.377Z,23.60
2019-03-28T01:19:22.424Z,19.53
2019-03-28T01:21:50.882Z,21.60
2019-03-28T01:24:19.284Z,27.13
2019-03-28T01:26:57.315Z,28.93
2019-03-28T01:29:23.249Z,27.50
2019-03-28T01:31:54.338Z,25.77
2019-03-28T01:34:25.733Z,22.63
2019-03-28T01:36:55.773Z,24.67
2019-03-28T01:39:25.044Z,27.53
2019-03-28T01:41:55.068Z,24.07
2019-03-28T01:44:25.117Z,24.23
2019-03-28T01:46:53.503Z,21.70
2019-03-28T01:49:21.900Z,21.03
2019-03-28T01:51:50.297Z,26.97
2019-03-28T01:54:18.688Z,20.37
2019-03-28T01:56:47.154Z,25.80
2019-03-28T01:59:15.789Z,25.70
2019-03-28T02:01:45.105Z,30.63
2019-03-28T02:04:13.510Z,32.70
2019-03-28T02:06:44.356Z,31.87
2019-03-28T02:09:12.757Z,36.07
2019-03-28T02:11:43.634Z,32.60
2019-03-28T02:14:14.806Z,31.70
2019-03-28T02:16:47.077Z,35.60
2019-03-28T02:19:16.175Z,30.17
2019-03-28T02:21:44.573Z,30.23
2019-03-28T02:24:12.961Z,31.33
2019-03-28T02:26:41.364Z,30.37
2019-03-28T02:29:09.769Z,28.33
2019-03-28T02:31:38.166Z,27.60
2019-03-28T02:34:06.812Z,29.10
2019-03-28T02:36:35.443Z,27.87
2019-03-28T02:39:05.697Z,23.67
2019-03-28T02:41:34.899Z,26.27
2019-03-28T02:44:04.164Z,28.97
2019-03-28T02:46:32.562Z,21.87
2019-03-28T02:49:01.191Z,24.20
2019-03-28T02:51:29.870Z,28.27
2019-03-28T02:53:58.314Z,31.33
2019-03-28T02:56:26.697Z,27.90
2019-03-28T02:58:55.104Z,25.87
2019-03-28T03:01:23.513Z,26.63
2019-03-28T03:03:51.902Z,30.90
2019-03-28T03:06:20.304Z,29.47
2019-03-28T03:08:48.689Z,28.43
2019-03-28T03:11:17.353Z,28.20
2019-03-28T03:13:45.861Z,32.77
2019-03-28T03:16:16.181Z,35.17
2019-03-28T03:18:44.592Z,31.67
2019-03-28T03:21:16.087Z,27.07
2019-03-28T03:23:44.483Z,29.10
2019-03-28T03:26:16.566Z,27.77
2019-03-28T03:28:44.648Z,29.30
2019-03-28T03:31:20.592Z,28.83
2019-03-28T03:33:45.040Z,33.53
2019-03-28T03:36:13.675Z,30.83
2019-03-28T03:38:42.077Z,35.23
2019-03-28T03:41:13.245Z,32.50
2019-03-28T03:43:41.647Z,39.90
2019-03-28T03:46:10.034Z,34.93
2019-03-28T03:48:45.477Z,42.43
2019-03-28T03:51:15.544Z,44.73
2019-03-28T03:53:46.927Z,49.40
2019-03-28T03:56:15.326Z,43.07
2019-03-28T03:58:43.726Z,48.47
2019-03-28T04:01:12.110Z,44.57
2019-03-28T04:03:42.941Z,41.83
2019-03-28T04:06:11.611Z,49.73
2019-03-28T04:08:40.009Z,46.23
2019-03-28T04:11:08.445Z,42.27
2019-03-28T04:13:42.653Z,36.37
2019-03-28T04:16:11.314Z,32.83
2019-03-28T04:18:39.925Z,33.20
2019-03-28T04:21:15.151Z,28.93
2019-03-28T04:23:41.150Z,30.40
2019-03-28T04:26:12.481Z,30.60
2019-03-28T04:28:46.386Z,31.10
2019-03-28T04:31:15.209Z,25.97
2019-03-28T04:33:43.603Z,28.30
2019-03-28T04:36:12.011Z,26.57
2019-03-28T04:38:42.037Z,27.33
2019-03-28T04:41:12.068Z,28.50
2019-03-28T04:43:43.554Z,32.37
2019-03-28T04:46:14.485Z,31.53
2019-03-28T04:48:45.628Z,37.30
2019-03-28T04:51:14.023Z,39.60
2019-03-28T04:53:42.408Z,43.03
2019-03-28T04:56:10.817Z,36.43
2019-03-28T04:58:44.730Z,38.70
2019-03-28T05:01:09.580Z,39.27
2019-03-28T05:03:40.685Z,46.43
2019-03-28T05:06:10.773Z,47.77
2019-03-28T05:08:48.058Z,49.57
2019-03-28T05:11:18.106Z,46.03
2019-03-28T05:13:49.505Z,47.53
2019-03-28T05:16:19.773Z,41.07
2019-03-28T05:18:49.821Z,46.83
2019-03-28T05:21:22.527Z,37.57
2019-03-28T05:23:50.921Z,36.60
2019-03-28T05:26:22.346Z,31.63
2019-03-28T05:28:57.785Z,31.30
2019-03-28T05:31:26.546Z,32.43
2019-03-28T05:34:01.236Z,37.80
2019-03-28T05:36:36.078Z,38.23
2019-03-28T05:39:08.622Z,37.40
2019-03-28T05:41:47.313Z,42.67
2019-03-28T05:44:21.569Z,35.73
2019-03-28T05:46:50.178Z,45.73
2019-03-28T05:49:21.670Z,40.10
2019-03-28T05:51:52.781Z,43.57
2019-03-28T05:54:24.513Z,40.03
2019-03-28T05:56:57.450Z,40.67
2019-03-28T05:59:25.837Z,39.73
2019-03-28T06:01:54.216Z,38.83
2019-03-28T06:04:23.617Z,43.50
2019-03-28T06:06:52.018Z,37.23
2019-03-28T06:09:20.484Z,42.83
2019-03-28T06:11:52.861Z,32.93
2019-03-28T06:14:20.628Z,36.63
2019-03-28T06:16:49.021Z,33.37
2019-03-28T06:19:20.208Z,33.37
2019-03-28T06:21:48.593Z,31.50
2019-03-28T06:24:16.997Z,32.33
2019-03-28T06:26:49.989Z,29.97
2019-03-28T06:29:24.161Z,33.17
2019-03-28T06:31:55.413Z,31.33
2019-03-28T06:34:21.846Z,30.07
2019-03-28T06:36:54.826Z,33.20
2019-03-28T06:39:23.224Z,28.20
2019-03-28T06:41:53.165Z,26.27
2019-03-28T06:44:24.255Z,28.37
2019-03-28T06:46:55.489Z,33.17
2019-03-28T06:49:25.588Z,25.27
2019-03-28T06:51:55.613Z,22.73
2019-03-28T06:54:30.596Z,23.30
2019-03-28T06:56:59.541Z,22.03
2019-03-28T06:59:37.265Z,24.00
2019-03-28T07:01:59.673Z,25.53
2019-03-28T07:04:30.298Z,28.87
2019-03-28T07:06:59.409Z,31.00
2019-03-28T07:09:27.801Z,28.43
2019-03-28T07:11:59.083Z,27.17
2019-03-28T07:14:28.241Z,24.97
2019-03-28T07:16:57.217Z,26.70
2019-03-28T07:19:28.265Z,25.67
2019-03-28T07:22:00.329Z,26.50
2019-03-28T07:24:31.235Z,23.67
2019-03-28T07:27:08.249Z,25.80
2019-03-28T07:29:50.846Z,22.43
2019-03-28T07:32:15.281Z,28.53
2019-03-28T07:34:52.745Z,25.93
2019-03-28T07:37:24.262Z,22.73
2019-03-28T07:39:52.647Z,23.03
2019-03-28T07:42:21.045Z,29.57
2019-03-28T07:44:49.462Z,27.40
2019-03-28T07:47:18.172Z,25.60
2019-03-28T07:49:50.999Z,24.83
2019-03-28T07:52:20.573Z,23.57
2019-03-28T07:54:49.047Z,26.10
2019-03-28T07:57:20.693Z,28.60
2019-03-28T07:59:49.090Z,25.03
2019-03-28T08:02:27.766Z,25.50
2019-03-28T08:04:56.157Z,25.77
2019-03-28T08:07:44.249Z,26.40
2019-03-28T08:10:06.185Z,27.20
2019-03-28T08:12:37.369Z,26.47
2019-03-28T08:15:08.781Z,25.63
2019-03-28T08:17:39.887Z,27.30
2019-03-28T08:20:13.116Z,23.63
2019-03-28T08:22:46.083Z,24.53
2019-03-28T08:25:16.847Z,23.50
2019-03-28T08:27:46.888Z,28.33
2019-03-28T08:30:21.752Z,25.37
2019-03-28T08:32:47.578Z,21.73
2019-03-28T08:35:17.596Z,27.47
2019-03-28T08:37:46.669Z,27.80
2019-03-28T08:40:33.128Z,22.67
2019-03-28T08:43:02.289Z,27.87
2019-03-28T08:45:30.753Z,26.60
2019-03-28T08:47:59.158Z,26.47
2019-03-28T08:50:27.591Z,27.67
2019-03-28T08:52:57.858Z,28.53
2019-03-28T08:55:29.285Z,27.93
2019-03-28T08:57:57.912Z,26.30
2019-03-28T09:00:33.100Z,29.90
2019-03-28T09:02:56.625Z,29.13
2019-03-28T09:05:28.185Z,31.77
2019-03-28T09:07:58.127Z,26.53
2019-03-28T09:10:29.232Z,34.27
2019-03-28T09:13:00.673Z,31.37
2019-03-28T09:15:43.115Z,28.43
2019-03-28T09:18:02.001Z,28.33
2019-03-28T09:20:30.481Z,30.07
2019-03-28T09:22:59.745Z,30.53
2019-03-28T09:25:30.369Z,31.03
2019-03-28T09:28:06.045Z,29.07
2019-03-28T09:30:47.873Z,29.53
2019-03-28T09:33:13.897Z,23.87
2019-03-28T09:35:42.407Z,27.45
2019-03-28T09:38:14.749Z,25.82
2019-03-28T09:40:45.940Z,24.55
2019-03-28T09:43:18.642Z,24.47
2019-03-28T09:45:48.016Z,31.48
2019-03-28T09:48:17.442Z,26.65
2019-03-28T09:50:46.162Z,31.50
2019-03-28T09:53:14.553Z,27.13
2019-03-28T09:55:42.954Z,28.90
2019-03-28T09:58:12.365Z,30.57
2019-03-28T10:00:40.774Z,37.80
2019-03-28T10:03:09.166Z,39.20
2019-03-28T10:05:38.814Z,20.50
2019-03-28T10:08:08.806Z,26.48
2019-03-28T10:10:38.246Z,25.30
2019-03-28T10:13:06.638Z,22.80
2019-03-28T10:15:36.945Z,21.50
2019-03-28T10:18:05.169Z,20.90
2019-03-28T10:20:33.564Z,22.22
2019-03-28T10:23:02.195Z,22.82
2019-03-28T10:25:30.605Z,19.37
2019-03-28T10:27:59.244Z,23.65
2019-03-28T10:30:39.583Z,17.32
2019-03-28T10:33:10.846Z,19.23
2019-03-28T10:35:49.033Z,18.85
2019-03-28T10:38:21.750Z,19.55
2019-03-28T10:40:50.165Z,18.40
2019-03-28T10:43:20.098Z,15.53
2019-03-28T10:45:51.429Z,15.38
2019-03-28T10:48:23.306Z,16.05
2019-03-28T10:50:51.013Z,14.20
2019-03-28T10:53:20.625Z,11.35
2019-03-28T10:55:52.146Z,13.80
2019-03-28T10:58:23.247Z,14.73
2019-03-28T11:00:54.645Z,14.80
2019-03-28T11:03:24.905Z,9.40
2019-03-28T11:05:55.231Z,9.88
2019-03-28T11:08:26.409Z,10.93
2019-03-28T11:10:54.813Z,12.05
2019-03-28T11:13:23.201Z,9.73
2019-03-28T11:15:51.602Z,10.00
2019-03-28T11:18:22.941Z,9.13
2019-03-28T11:20:52.583Z,10.20
2019-03-28T11:23:25.270Z,10.05
2019-03-28T11:25:57.571Z,10.05
2019-03-28T11:28:26.607Z,6.42
2019-03-28T11:30:57.669Z,4.50
2019-03-28T11:33:28.720Z,7.33
2019-03-28T11:36:00.161Z,5.75
2019-03-28T11:38:28.857Z,10.78
2019-03-28T11:40:57.941Z,9.23
2019-03-28T11:43:27.975Z,11.85
2019-03-28T11:46:00.194Z,7.60
2019-03-28T11:48:28.579Z,7.12
2019-03-28T11:50:56.976Z,5.90
2019-03-28T11:53:28.303Z,5.50
2019-03-28T11:56:00.831Z,6.25
2019-03-28T11:58:29.236Z,5.10
2019-03-28T12:01:00.670Z,9.00
2019-03-28T12:03:29.959Z,5.45
2019-03-28T12:06:01.741Z,6.22
2019-03-28T12:08:30.420Z,7.08
2019-03-28T12:11:01.530Z,6.70
2019-03-28T12:13:44.152Z,6.47
2019-03-28T12:16:02.830Z,5.85
2019-03-28T12:18:35.149Z,5.08
2019-03-28T12:21:04.549Z,9.38
2019-03-28T12:23:41.381Z,4.58
2019-03-28T12:26:10.301Z,4.40
2019-03-28T12:28:41.938Z,4.92
2019-03-28T12:31:11.965Z,5.15
2019-03-28T12:33:41.990Z,5.42
2019-03-28T12:36:16.128Z,5.12
2019-03-28T12:38:44.762Z,4.50
2019-03-28T12:41:13.229Z,4.42
2019-03-28T12:43:41.657Z,5.33
2019-03-28T12:46:12.223Z,5.58
2019-03-28T12:48:40.621Z,5.05
2019-03-28T12:51:09.001Z,5.17
2019-03-28T12:53:37.393Z,4.15
2019-03-28T12:56:05.784Z,5.47
2019-03-28T12:58:34.181Z,3.37
2019-03-28T13:01:02.832Z,4.67
2019-03-28T13:03:44.806Z,4.65
2019-03-28T13:06:01.906Z,4.00
2019-03-28T13:08:35.963Z,7.28
2019-03-28T13:11:04.344Z,6.90
2019-03-28T13:13:34.627Z,5.40
2019-03-28T13:16:03.245Z,5.08
2019-03-28T13:18:37.772Z,6.83
2019-03-28T13:21:13.824Z,6.27
2019-03-28T13:23:40.696Z,4.60
2019-03-28T13:26:09.095Z,6.53
2019-03-28T13:28:39.054Z,4.90
2019-03-28T13:31:11.831Z,4.37
2019-03-28T13:33:42.865Z,6.90
2019-03-28T13:36:11.501Z,5.00
2019-03-28T13:38:42.634Z,4.10
2019-03-28T13:41:13.569Z,5.72
2019-03-28T13:43:45.004Z,5.15
2019-03-28T13:46:13.468Z,3.92
2019-03-28T13:48:45.224Z,6.58
2019-03-28T13:51:14.475Z,5.20
2019-03-28T13:53:42.867Z,4.03
2019-03-28T13:56:15.713Z,5.17
2019-03-28T13:58:44.113Z,4.12
2019-03-28T14:01:12.501Z,3.27
2019-03-28T14:03:43.409Z,2.42
2019-03-28T14:06:19.274Z,2.17
2019-03-28T14:08:48.681Z,3.25
2019-03-28T14:11:19.689Z,1.95
2019-03-28T14:13:48.070Z,1.32
2019-03-28T14:16:17.273Z,2.10
2019-03-28T14:18:45.661Z,2.20
2019-03-28T14:21:14.043Z,1.52
2019-03-28T14:23:47.341Z,1.57
2019-03-28T14:26:17.369Z,3.58
2019-03-28T14:28:45.770Z,4.25
2019-03-28T14:31:14.153Z,1.77
2019-03-28T14:33:44.193Z,1.75
2019-03-28T14:36:15.276Z,3.20
2019-03-28T14:38:46.645Z,2.00
2019-03-28T14:41:16.635Z,2.20
2019-03-28T14:43:45.017Z,4.35
2019-03-28T14:46:13.639Z,2.58
2019-03-28T14:48:47.766Z,3.17
2019-03-28T14:51:16.147Z,3.90
2019-03-28T14:53:50.305Z,3.75
2019-03-28T14:56:19.638Z,3.95
2019-03-28T14:58:51.121Z,3.80
2019-03-28T15:01:21.127Z,8.13
2019-03-28T15:03:49.617Z,4.30
2019-03-28T15:06:17.998Z,4.75
2019-03-28T15:08:49.108Z,4.30
2019-03-28T15:11:19.207Z,3.10
2019-03-28T15:13:47.769Z,3.33
2019-03-28T15:16:16.152Z,2.92
2019-03-28T15:18:46.194Z,4.78
2019-03-28T15:21:18.892Z,5.67
2019-03-28T15:23:55.514Z,3.10
2019-03-28T15:26:30.391Z,4.28
2019-03-28T15:28:59.345Z,4.33
2019-03-28T15:31:27.741Z,3.70
2019-03-28T15:34:01.981Z,3.45
2019-03-28T15:36:33.205Z,4.15
2019-03-28T15:39:05.777Z,3.80
2019-03-28T15:41:46.617Z,4.37
2019-03-28T15:44:15.009Z,8.13
2019-03-28T15:46:43.392Z,3.50
2019-03-28T15:49:12.031Z,4.63
2019-03-28T15:51:40.413Z,5.17
2019-03-28T15:54:11.713Z,2.97
2019-03-28T15:56:43.686Z,4.03
2019-03-28T15:59:15.142Z,4.10
2019-03-28T16:01:43.542Z,3.90
2019-03-28T16:04:11.922Z,4.40
2019-03-28T16:06:41.950Z,6.73
2019-03-28T16:09:10.341Z,4.27
2019-03-28T16:11:38.979Z,6.50
2019-03-28T16:14:07.629Z,5.43
2019-03-28T16:16:36.030Z,5.63
2019-03-28T16:19:07.376Z,6.00
2019-03-28T16:21:35.744Z,6.17
2019-03-28T16:24:04.206Z,6.03
2019-03-28T16:26:34.483Z,6.70
2019-03-28T16:29:05.726Z,2.87
2019-03-28T16:31:34.073Z,6.67
2019-03-28T16:34:07.627Z,5.37
2019-03-28T16:36:36.113Z,3.77
2019-03-28T16:39:06.461Z,5.03
2019-03-28T16:41:37.491Z,3.50
2019-03-28T16:44:09.550Z,4.73
2019-03-28T16:46:39.476Z,4.97
2019-03-28T16:49:08.291Z,4.87
2019-03-28T16:51:37.434Z,6.07
2019-03-28T16:54:05.819Z,6.67
2019-03-28T16:56:34.205Z,5.60
2019-03-28T16:59:04.054Z,8.60
2019-03-28T17:01:38.454Z,4.17
2019-03-28T17:04:19.698Z,12.50
2019-03-28T17:06:39.101Z,11.30
2019-03-28T17:09:09.587Z,11.27
2019-03-28T17:11:40.102Z,15.60
2019-03-28T17:14:11.171Z,9.07
2019-03-28T17:16:41.421Z,8.27
2019-03-28T17:19:10.053Z,9.60
2019-03-28T17:21:40.089Z,10.73
2019-03-28T17:24:08.481Z,16.27
2019-03-28T17:26:39.772Z,16.20
2019-03-28T17:29:11.063Z,32.17
2019-03-28T17:31:39.463Z,21.13
2019-03-28T17:34:07.876Z,14.83
2019-03-28T17:36:36.510Z,44.43
2019-03-28T17:39:06.563Z,79.33
2019-03-28T17:41:37.693Z,50.27
2019-03-28T17:44:06.092Z,42.70
2019-03-28T17:46:34.734Z,31.37
2019-03-28T17:49:03.435Z,22.73
2019-03-28T17:51:31.882Z,15.67
2019-03-28T17:54:00.283Z,12.00
2019-03-28T17:56:28.677Z,10.33
2019-03-28T17:58:58.713Z,6.83
2019-03-28T18:01:27.104Z,8.00
2019-03-28T18:03:55.501Z,5.97
2019-03-28T18:06:27.116Z,7.73
2019-03-28T18:08:55.501Z,7.60
2019-03-28T18:11:26.630Z,10.13
2019-03-28T18:13:57.361Z,6.40
2019-03-28T18:16:26.529Z,6.03
2019-03-28T18:18:55.162Z,8.30
2019-03-28T18:21:23.553Z,6.27
2019-03-28T18:23:52.773Z,6.43
2019-03-28T18:26:21.158Z,7.47
2019-03-28T18:28:52.505Z,4.73
2019-03-28T18:31:23.617Z,5.93
2019-03-28T18:33:53.646Z,6.57
2019-03-28T18:36:26.914Z,4.73
2019-03-28T18:38:58.214Z,6.50
2019-03-28T18:41:29.381Z,6.03
2019-03-28T18:44:06.414Z,5.57
2019-03-28T18:46:36.445Z,6.10
2019-03-28T18:49:08.933Z,4.27
2019-03-28T18:51:38.495Z,4.60
2019-03-28T18:54:11.457Z,8.53
2019-03-28T18:56:39.914Z,8.23
2019-03-28T18:59:08.311Z,9.73
2019-03-28T19:01:38.349Z,12.77
2019-03-28T19:04:09.709Z,8.63
2019-03-28T19:06:38.343Z,10.17
2019-03-28T19:09:08.364Z,8.93
2019-03-28T19:11:40.974Z,4.87
2019-03-28T19:14:09.915Z,9.87
2019-03-28T19:16:39.943Z,8.07
2019-03-28T19:19:08.348Z,7.73
2019-03-28T19:21:39.673Z,6.30
2019-03-28T19:24:08.409Z,6.63
2019-03-28T19:26:41.242Z,5.97
2019-03-28T19:29:09.637Z,9.40
2019-03-28T19:31:39.665Z,7.37
2019-03-28T19:34:08.114Z,7.37
2019-03-28T19:36:38.042Z,10.70
2019-03-28T19:39:10.521Z,7.57
2019-03-28T19:41:39.782Z,7.73
2019-03-28T19:44:08.277Z,8.20
2019-03-28T19:46:38.473Z,9.57
2019-03-28T19:49:10.117Z,8.67
2019-03-28T19:51:40.500Z,11.23
2019-03-28T19:54:09.813Z,13.30
2019-03-28T19:56:45.076Z,15.23
2019-03-28T19:59:16.186Z,7.80
2019-03-28T20:01:46.226Z,9.50
2019-03-28T20:04:20.159Z,8.00
2019-03-28T20:06:52.509Z,10.37
2019-03-28T20:09:29.673Z,10.43
2019-03-28T20:12:01.652Z,11.63
2019-03-28T20:14:28.184Z,10.17
2019-03-28T20:16:56.588Z,9.33
2019-03-28T20:19:27.023Z,13.20
2019-03-28T20:21:55.106Z,7.93
2019-03-28T20:24:23.496Z,11.10
2019-03-28T20:26:54.282Z,10.53
2019-03-28T20:29:26.034Z,11.00
2019-03-28T20:31:57.546Z,9.87
2019-03-28T20:34:26.412Z,9.60
2019-03-28T20:36:54.797Z,13.37
2019-03-28T20:39:23.193Z,9.03
2019-03-28T20:41:55.969Z,11.97
2019-03-28T20:44:24.368Z,12.27
2019-03-28T20:46:52.737Z,9.20
2019-03-28T20:49:21.127Z,9.13
2019-03-28T20:51:55.429Z,12.43
2019-03-28T20:54:29.839Z,14.93
2019-03-28T20:56:59.117Z,9.37
2019-03-28T20:59:28.364Z,10.77
2019-03-28T21:01:58.711Z,11.67
2019-03-28T21:04:31.409Z,13.73
2019-03-28T21:07:03.117Z,15.67
2019-03-28T21:09:31.748Z,14.13
2019-03-28T21:12:02.831Z,16.03
2019-03-28T21:14:31.225Z,13.90
2019-03-28T21:17:00.500Z,14.07
2019-03-28T21:19:37.833Z,18.73
2019-03-28T21:22:09.246Z,19.77
2019-03-28T21:24:40.562Z,17.80
2019-03-28T21:27:11.937Z,15.70
2019-03-28T21:29:48.934Z,15.20
2019-03-28T21:32:13.437Z,16.20
2019-03-28T21:34:44.971Z,14.23
2019-03-28T21:37:13.386Z,20.50
2019-03-28T21:39:41.770Z,21.80
2019-03-28T21:42:12.087Z,17.00
2019-03-28T21:44:41.217Z,17.90
2019-03-28T21:47:12.584Z,14.17
2019-03-28T21:49:45.365Z,11.30
2019-03-28T21:52:14.344Z,11.57
2019-03-28T21:54:43.425Z,10.30
2019-03-28T21:57:14.543Z,17.47
2019-03-28T21:59:42.176Z,13.57
2019-03-28T22:02:14.092Z,11.97
2019-03-28T22:04:42.494Z,10.53
2019-03-28T22:07:10.875Z,11.60
2019-03-28T22:09:39.829Z,13.87
2019-03-28T22:12:08.932Z,11.70
2019-03-28T22:14:40.501Z,10.37
2019-03-28T22:17:08.893Z,11.80
2019-03-28T22:19:45.726Z,10.53
2019-03-28T22:22:14.129Z,13.67
2019-03-28T22:24:42.518Z,11.10
2019-03-28T22:27:10.905Z,11.73
2019-03-28T22:29:39.289Z,11.87
2019-03-28T22:32:11.729Z,12.27
2019-03-28T22:34:39.683Z,16.23
2019-03-28T22:37:10.765Z,14.83
2019-03-28T22:39:39.250Z,14.43
2019-03-28T22:42:08.251Z,14.17
2019-03-28T22:44:36.616Z,9.70
2019-03-28T22:47:07.806Z,12.23
2019-03-28T22:49:36.193Z,11.43
2019-03-28T22:52:04.618Z,15.03
2019-03-28T22:54:36.088Z,13.47
2019-03-28T22:57:04.545Z,16.00
2019-03-28T22:59:32.960Z,13.13
2019-03-28T23:02:02.920Z,13.40
2019-03-28T23:04:31.858Z,10.07
2019-03-28T23:07:10.384Z,10.57
2019-03-28T23:09:30.427Z,12.37
2019-03-28T23:12:00.151Z,11.83
2019-03-28T23:14:30.458Z,11.13
2019-03-28T23:17:02.829Z,10.97
2019-03-28T23:19:36.196Z,11.87
2019-03-28T23:22:06.303Z,14.93
2019-03-28T23:24:39.307Z,11.20
2019-03-28T23:27:07.685Z,13.63
2019-03-28T23:29:38.770Z,12.33
2019-03-28T23:32:07.153Z,14.10
2019-03-28T23:34:38.014Z,13.03
2019-03-28T23:37:07.925Z,15.07
2019-03-28T23:39:39.088Z,14.97
2019-03-28T23:42:07.473Z,16.27
2019-03-28T23:44:35.877Z,19.60
2019-03-28T23:47:04.256Z,16.37
2019-03-28T23:49:38.865Z,16.23
2019-03-28T23:52:07.980Z,16.53
2019-03-28T23:54:36.358Z,12.30
2019-03-28T23:57:10.704Z,15.57
2019-03-28T23:59:42.116Z,13.13
